Ariel, Mississippi
Current Conditions -  °F | °C
As of 1:53 PM on Friday 28 Nov 2014 (Local Time) from KMCB Reporting Station
Clear Clear  
Wind Chill: 14°   Ceiling: Unl
Heat Index: 14°   Visibility: 10mi
Dew Point: -3°   Wind: 5mph
Humidity: 31%   Direction: NA
Pressure: 30.3"   Gusts: NA
Location:  31.1819°N, 90.9008°W
Report Text: KMCB 281953Z AUTO VRB04KT 10SM CLR 14/M03 A3030 RMK AO2 SLP259 T01441028
Loading
Personal Weather Stations






























Interactive Weather Map New forecast layout! Learn more

10-Day Weather Forecast

Advertisements
Track Severe Weather on mobile